Time;durP1;ratioP1;P1;durP2;ratioP2;P2;SDS_P1;SDS_P2;PMS_P1;PMS_P2;Temp;Humidity;BMP_temperature;BMP_pressure;BME280_temperature;BME280_humidity;BME280_pressure;Samples;Min_cycle;Max_cycle;Signal;HPM_P1;HPM_P2
2022/10/18 00:02:03;;;;;;;8.45;1.90;;;;;;;;;;6332108;22;20133;-61
2022/10/18 00:04:30;;;;;;;12.05;2.47;;;;;;;;;;6333250;22;20034;-62
2022/10/18 00:07:05;;;;;;;12.00;2.50;;;;;;;;;;6333244;22;20129;-61
2022/10/18 00:09:32;;;;;;;8.02;1.95;;;;;;;;;;6331943;22;20474;-61
2022/10/18 00:12:06;;;;;;;7.20;2.10;;;;;;;;;;6332783;22;20033;-61
2022/10/18 00:14:33;;;;;;;13.25;2.47;;;;;;;;;;6332069;22;20117;-59
2022/10/18 00:17:00;;;;;;;12.57;2.50;;;;;;;;;;6330642;22;20413;-58
2022/10/18 00:19:33;;;;;;;12.73;2.38;;;;;;;;;;6332010;22;20409;-59
2022/10/18 00:22:01;;;;;;;10.20;2.72;;;;;;;;;;6331035;22;20094;-59
2022/10/18 00:24:28;;;;;;;13.63;2.20;;;;;;;;;;6330070;22;20019;-58
2022/10/18 00:27:02;;;;;;;11.20;2.45;;;;;;;;;;6330786;22;20089;-59
2022/10/18 00:29:29;;;;;;;13.77;2.15;;;;;;;;;;6330961;22;20058;-53
2022/10/18 00:32:03;;;;;;;11.52;2.30;;;;;;;;;;6330845;22;20042;-60
2022/10/18 00:34:30;;;;;;;8.77;2.00;;;;;;;;;;6332151;22;20018;-62
2022/10/18 00:36:57;;;;;;;12.88;2.30;;;;;;;;;;6331078;22;20032;-62
2022/10/18 00:39:30;;;;;;;9.88;2.55;;;;;;;;;;6330566;22;20026;-62
2022/10/18 00:41:58;;;;;;;9.10;2.17;;;;;;;;;;6332856;22;20502;-62
2022/10/18 00:44:32;;;;;;;10.13;2.30;;;;;;;;;;6331124;22;20029;-63
2022/10/18 00:47:04;;;;;;;9.00;2.05;;;;;;;;;;6333490;22;20023;-62
2022/10/18 00:49:37;;;;;;;14.38;2.90;;;;;;;;;;6331325;22;20046;-63
2022/10/18 00:52:19;;;;;;;15.75;2.88;;;;;;;;;;6331294;22;20031;-62
2022/10/18 00:54:46;;;;;;;12.75;3.33;;;;;;;;;;6331811;22;20589;-62
2022/10/18 00:57:21;;;;;;;14.20;3.00;;;;;;;;;;6332753;22;20418;-62
2022/10/18 00:59:48;;;;;;;12.05;3.15;;;;;;;;;;6331791;22;20025;-61
2022/10/18 01:02:22;;;;;;;17.77;3.65;;;;;;;;;;6332770;22;20101;-62
2022/10/18 01:04:49;;;;;;;16.33;3.22;;;;;;;;;;6332229;22;20519;-62
2022/10/18 01:07:42;;;;;;;16.85;3.30;;;;;;;;;;6332877;22;20095;-62
2022/10/18 01:10:22;;;;;;;18.27;3.25;;;;;;;;;;6298324;22;20046;-58
2022/10/18 01:12:57;;;;;;;13.80;2.95;;;;;;;;;;6331011;22;20501;-60
2022/10/18 01:15:37;;;;;;;12.52;3.05;;;;;;;;;;6330641;22;20371;-61
2022/10/18 01:18:22;;;;;;;19.73;3.55;;;;;;;;;;6332411;22;20039;-60
2022/10/18 01:21:05;;;;;;;17.67;3.05;;;;;;;;;;6332254;22;20114;-61
2022/10/18 01:23:41;;;;;;;15.07;3.00;;;;;;;;;;6329324;22;20087;-60
2022/10/18 01:26:31;;;;;;;18.00;3.25;;;;;;;;;;6300702;22;20019;-60
2022/10/18 01:29:07;;;;;;;22.30;4.10;;;;;;;;;;6300272;22;20025;-59
2022/10/18 01:31:44;;;;;;;15.75;3.53;;;;;;;;;;6297220;22;20054;-62
2022/10/18 01:34:13;;;;;;;13.93;3.00;;;;;;;;;;6300864;22;20019;-62
2022/10/18 01:36:49;;;;;;;25.08;3.85;;;;;;;;;;6298180;22;20106;-63
2022/10/18 01:39:19;;;;;;;19.65;3.63;;;;;;;;;;6300822;22;20015;-63
2022/10/18 01:41:53;;;;;;;15.60;3.10;;;;;;;;;;6299746;22;20563;-62
2022/10/18 01:44:20;;;;;;;;;;;;;;;;;;6300139;22;20047;-63
2022/10/18 01:46:54;;;;;;;20.42;3.33;;;;;;;;;;6299589;22;19921;-60
2022/10/18 01:49:22;;;;;;;18.67;3.50;;;;;;;;;;6299860;22;20030;-63
2022/10/18 01:51:55;;;;;;;23.08;4.13;;;;;;;;;;6300717;22;20118;-62
2022/10/18 01:54:27;;;;;;;31.40;5.63;;;;;;;;;;6300258;22;20019;-63
2022/10/18 01:57:00;;;;;;;19.48;4.22;;;;;;;;;;6300289;22;20023;-63
2022/10/18 01:59:46;;;;;;;21.58;4.13;;;;;;;;;;6300736;22;20057;-63
2022/10/18 02:02:31;;;;;;;25.58;4.55;;;;;;;;;;6300242;22;20025;-63
2022/10/18 02:05:06;;;;;;;28.17;4.35;;;;;;;;;;6299672;22;20122;-62
2022/10/18 02:07:42;;;;;;;24.05;4.63;;;;;;;;;;6272487;22;20019;-62
2022/10/18 02:10:39;;;;;;;18.42;4.88;;;;;;;;;;6300316;22;20330;-62
2022/10/18 02:13:07;;;;;;;25.30;4.57;;;;;;;;;;6296028;22;20021;-62
2022/10/18 02:15:44;;;;;;;23.95;5.22;;;;;;;;;;6299290;22;20570;-61
2022/10/18 02:18:14;;;;;;;27.40;5.20;;;;;;;;;;6300378;22;20019;-62
2022/10/18 02:20:41;;;;;;;27.65;5.03;;;;;;;;;;6299167;22;20019;-62
2022/10/18 02:23:16;;;;;;;35.53;5.80;;;;;;;;;;6299397;22;20678;-62
2022/10/18 02:25:43;;;;;;;40.65;6.03;;;;;;;;;;6325290;22;20025;-53
2022/10/18 02:28:23;;;;;;;25.45;6.03;;;;;;;;;;6328499;22;20019;-59
2022/10/18 02:30:55;;;;;;;29.48;5.85;;;;;;;;;;6330640;22;20019;-60
2022/10/18 02:33:48;;;;;;;25.90;5.53;;;;;;;;;;6330361;22;20050;-59
2022/10/18 02:36:18;;;;;;;32.67;5.32;;;;;;;;;;6330269;22;20415;-58
2022/10/18 02:38:55;;;;;;;26.73;5.63;;;;;;;;;;6329942;22;20018;-59
2022/10/18 02:41:24;;;;;;;36.35;6.85;;;;;;;;;;6328634;22;20057;-59
2022/10/18 02:43:51;;;;;;;34.40;6.40;;;;;;;;;;6328725;22;20097;-53
2022/10/18 02:46:25;;;;;;;27.08;6.15;;;;;;;;;;6330054;22;20023;-61
2022/10/18 02:48:53;;;;;;;29.08;6.65;;;;;;;;;;6330964;22;20113;-53
2022/10/18 02:51:27;;;;;;;36.03;7.70;;;;;;;;;;6331974;22;20023;-48
2022/10/18 02:53:54;;;;;;;49.30;7.35;;;;;;;;;;6331356;22;20015;-49
2022/10/18 02:56:21;;;;;;;22.67;6.28;;;;;;;;;;6331788;22;20026;-50
2022/10/18 02:58:55;;;;;;;31.55;7.45;;;;;;;;;;6332547;22;20019;-49
2022/10/18 03:01:22;;;;;;;44.45;8.13;;;;;;;;;;6332234;22;20029;-49
2022/10/18 03:03:56;;;;;;;34.58;7.30;;;;;;;;;;6332238;22;20021;-59
2022/10/18 03:06:23;;;;;;;35.22;8.02;;;;;;;;;;6331198;22;20029;-51
2022/10/18 03:08:58;;;;;;;64.28;11.27;;;;;;;;;;6331539;22;20471;-53
2022/10/18 03:11:25;;;;;;;38.80;8.07;;;;;;;;;;6331823;22;20501;-51
2022/10/18 03:13:52;;;;;;;33.80;6.85;;;;;;;;;;6332344;22;20021;-52
2022/10/18 03:16:25;;;;;;;57.10;8.85;;;;;;;;;;6331488;22;20033;-54
2022/10/18 03:18:53;;;;;;;52.90;8.63;;;;;;;;;;6332207;22;20355;-52
2022/10/18 03:21:27;;;;;;;65.65;9.73;;;;;;;;;;6332882;22;20025;-60
2022/10/18 03:24:07;;;;;;;60.10;10.02;;;;;;;;;;6330559;22;20486;-53
2022/10/18 03:26:42;;;;;;;62.17;10.23;;;;;;;;;;6301357;22;20094;-59
2022/10/18 03:29:09;;;;;;;96.25;11.82;;;;;;;;;;6301041;22;20024;-60
2022/10/18 03:31:36;;;;;;;48.67;8.68;;;;;;;;;;6297999;22;20369;-60
2022/10/18 03:34:10;;;;;;;66.18;9.98;;;;;;;;;;6302177;22;20094;-59
2022/10/18 03:36:40;;;;;;;64.88;9.80;;;;;;;;;;6299368;22;20027;-59
2022/10/18 03:39:14;;;;;;;68.80;11.07;;;;;;;;;;6300597;22;20019;-59
2022/10/18 03:41:41;;;;;;;56.67;9.82;;;;;;;;;;6299257;22;20016;-59
2022/10/18 03:44:08;;;;;;;86.10;11.30;;;;;;;;;;6301055;22;20034;-51
2022/10/18 03:46:41;;;;;;;84.75;10.27;;;;;;;;;;6300470;22;20053;-47
2022/10/18 03:49:09;;;;;;;72.95;10.00;;;;;;;;;;6302467;22;20023;-50
2022/10/18 03:51:43;;;;;;;77.88;11.73;;;;;;;;;;6301038;22;20025;-52
2022/10/18 03:54:10;;;;;;;93.97;11.73;;;;;;;;;;6301462;22;20021;-48
2022/10/18 03:56:37;;;;;;;63.03;10.60;;;;;;;;;;6300274;22;20571;-49
2022/10/18 03:59:11;;;;;;;85.13;12.30;;;;;;;;;;6301267;22;20097;-60
2022/10/18 04:01:38;;;;;;;83.47;10.35;;;;;;;;;;6297357;22;20019;-59
2022/10/18 04:04:12;;;;;;;70.05;9.73;;;;;;;;;;6302027;22;20019;-59
2022/10/18 04:06:39;;;;;;;72.40;8.90;;;;;;;;;;6300817;22;20023;-59
2022/10/18 04:09:06;;;;;;;81.63;10.18;;;;;;;;;;6302084;22;20611;-59
2022/10/18 04:11:40;;;;;;;75.10;10.00;;;;;;;;;;6301122;22;20019;-59
2022/10/18 04:14:07;;;;;;;74.05;9.88;;;;;;;;;;6301900;22;20054;-59
2022/10/18 04:16:41;;;;;;;63.28;9.30;;;;;;;;;;6299298;22;20110;-60
2022/10/18 04:19:08;;;;;;;58.97;8.90;;;;;;;;;;6300073;22;20019;-59
2022/10/18 04:21:35;;;;;;;88.18;10.93;;;;;;;;;;6299195;22;20769;-60
2022/10/18 04:24:24;;;;;;;48.40;7.63;;;;;;;;;;6302390;22;20030;-59
2022/10/18 04:26:58;;;;;;;69.22;9.18;;;;;;;;;;6331210;22;20488;-60
2022/10/18 04:29:33;;;;;;;75.10;8.85;;;;;;;;;;6330837;22;20119;-59
2022/10/18 04:32:00;;;;;;;66.90;8.68;;;;;;;;;;6331491;22;20019;-59
2022/10/18 04:34:28;;;;;;;;;;;;;;;;;;6333157;22;20022;-60
2022/10/18 04:37:02;;;;;;;71.35;8.85;;;;;;;;;;6331837;22;19925;-60
2022/10/18 04:39:29;;;;;;;56.33;8.68;;;;;;;;;;6331843;22;20102;-62
2022/10/18 04:42:03;;;;;;;56.42;7.57;;;;;;;;;;6328963;22;20460;-60
2022/10/18 04:44:30;;;;;;;63.35;8.50;;;;;;;;;;6329396;22;20455;-60
2022/10/18 04:46:57;;;;;;;64.57;8.82;;;;;;;;;;6332379;22;20050;-61
2022/10/18 04:49:31;;;;;;;53.17;7.72;;;;;;;;;;6330849;22;20029;-61
2022/10/18 04:51:58;;;;;;;72.00;8.65;;;;;;;;;;6331557;22;20021;-61
2022/10/18 04:54:32;;;;;;;51.35;7.90;;;;;;;;;;6331324;22;20022;-61
2022/10/18 04:56:59;;;;;;;69.47;7.63;;;;;;;;;;6329324;22;20359;-59
2022/10/18 04:59:26;;;;;;;65.90;8.30;;;;;;;;;;6330889;22;20019;-60
2022/10/18 05:02:00;;;;;;;60.28;8.73;;;;;;;;;;6325372;22;20290;-49
2022/10/18 05:04:27;;;;;;;70.03;8.40;;;;;;;;;;6332070;22;20034;-50
2022/10/18 05:07:01;;;;;;;43.42;6.78;;;;;;;;;;6330317;22;20019;-49
2022/10/18 05:09:29;;;;;;;53.15;6.45;;;;;;;;;;6333199;22;20094;-49
2022/10/18 05:12:03;;;;;;;44.42;6.40;;;;;;;;;;6331473;22;20029;-51
2022/10/18 05:14:30;;;;;;;52.40;6.80;;;;;;;;;;6333289;22;20014;-50
2022/10/18 05:16:57;;;;;;;44.95;6.20;;;;;;;;;;6333276;22;20018;-58
2022/10/18 05:19:30;;;;;;;44.33;6.53;;;;;;;;;;6331712;22;20019;-58
2022/10/18 05:21:58;;;;;;;48.15;5.90;;;;;;;;;;6332062;22;20022;-58
2022/10/18 05:24:45;;;;;;;53.78;6.50;;;;;;;;;;6332222;22;20098;-58
2022/10/18 05:27:19;;;;;;;46.38;6.72;;;;;;;;;;6330688;22;20029;-58
2022/10/18 05:29:54;;;;;;;49.30;6.50;;;;;;;;;;6331824;22;20027;-59
2022/10/18 05:32:24;;;;;;;43.15;6.82;;;;;;;;;;6332214;22;20061;-59
2022/10/18 05:34:51;;;;;;;54.92;6.75;;;;;;;;;;6331548;22;20121;-62
2022/10/18 05:37:26;;;;;;;57.47;6.47;;;;;;;;;;6331541;22;20486;-61
2022/10/18 05:39:54;;;;;;;54.92;7.53;;;;;;;;;;6330995;22;20069;-58
2022/10/18 05:42:28;;;;;;;49.35;7.13;;;;;;;;;;6331539;22;20138;-58
2022/10/18 05:44:55;;;;;;;49.33;7.05;;;;;;;;;;6332133;22;20018;-58
2022/10/18 05:47:23;;;;;;;57.30;7.45;;;;;;;;;;6332630;22;20329;-59
2022/10/18 05:49:57;;;;;;;57.20;7.50;;;;;;;;;;6332717;22;20022;-59
2022/10/18 05:52:24;;;;;;;67.03;7.22;;;;;;;;;;6332098;22;20065;-58
2022/10/18 05:54:58;;;;;;;73.90;8.27;;;;;;;;;;6332654;22;20033;-62
2022/10/18 05:57:25;;;;;;;66.60;8.57;;;;;;;;;;6332422;22;20027;-62
2022/10/18 05:59:52;;;;;;;68.88;7.72;;;;;;;;;;6331410;22;20363;-62
2022/10/18 06:02:26;;;;;;;69.55;8.95;;;;;;;;;;6332316;22;20029;-61
2022/10/18 06:04:53;;;;;;;69.28;9.07;;;;;;;;;;6331566;22;20378;-62
2022/10/18 06:07:27;;;;;;;71.60;8.38;;;;;;;;;;6329913;22;20428;-62
2022/10/18 06:09:54;;;;;;;83.55;8.65;;;;;;;;;;6331965;22;20023;-63
2022/10/18 06:12:21;;;;;;;70.10;8.95;;;;;;;;;;6332212;22;20023;-60
2022/10/18 06:14:55;;;;;;;69.25;8.43;;;;;;;;;;6332397;22;20093;-62
2022/10/18 06:17:22;;;;;;;80.97;10.25;;;;;;;;;;6329994;22;20106;-60
2022/10/18 06:19:58;;;;;;;71.60;8.23;;;;;;;;;;6331063;22;20125;-60
2022/10/18 06:22:25;;;;;;;60.63;6.93;;;;;;;;;;6331455;22;20113;-60
2022/10/18 06:24:53;;;;;;;82.38;9.40;;;;;;;;;;6332262;22;20021;-60
2022/10/18 06:27:34;;;;;;;71.93;9.20;;;;;;;;;;6331282;22;20029;-60
2022/10/18 06:30:01;;;;;;;66.93;7.10;;;;;;;;;;6333767;22;20060;-60
2022/10/18 06:32:41;;;;;;;74.15;8.80;;;;;;;;;;6333063;22;20029;-61
2022/10/18 06:35:09;;;;;;;71.53;9.20;;;;;;;;;;6333812;22;20397;-59
2022/10/18 06:37:43;;;;;;;70.65;8.13;;;;;;;;;;6333435;22;20027;-59
2022/10/18 06:40:10;;;;;;;69.20;7.63;;;;;;;;;;6332975;22;20399;-60
2022/10/18 06:42:37;;;;;;;85.57;8.55;;;;;;;;;;6333625;22;20472;-59
2022/10/18 06:45:26;;;;;;;;;;;;;;;;;;6334379;22;20025;-59
2022/10/18 06:48:00;;;;;;;76.65;8.95;;;;;;;;;;6333698;22;19918;-60
2022/10/18 06:50:27;;;;;;;81.10;8.45;;;;;;;;;;6334176;22;20097;-62
2022/10/18 06:52:54;;;;;;;78.78;8.57;;;;;;;;;;6332378;22;20510;-60
2022/10/18 06:55:27;;;;;;;59.95;7.30;;;;;;;;;;6331854;22;20025;-51
2022/10/18 06:58:01;;;;;;;69.15;7.35;;;;;;;;;;6333791;22;20460;-50
2022/10/18 07:00:36;;;;;;;55.97;7.60;;;;;;;;;;6333487;22;20529;-48
2022/10/18 07:03:03;;;;;;;79.40;8.30;;;;;;;;;;6331354;22;20019;-49
2022/10/18 07:05:31;;;;;;;58.58;7.38;;;;;;;;;;6334073;22;20019;-52
2022/10/18 07:08:05;;;;;;;81.32;8.50;;;;;;;;;;6333085;22;20097;-51
2022/10/18 07:10:32;;;;;;;59.00;7.03;;;;;;;;;;6332509;22;20018;-61
2022/10/18 07:13:06;;;;;;;59.25;6.68;;;;;;;;;;6333472;22;20029;-59
2022/10/18 07:16:00;;;;;;;72.30;7.93;;;;;;;;;;6332807;22;20486;-58
2022/10/18 07:18:34;;;;;;;77.88;9.02;;;;;;;;;;6332100;22;20447;-59
2022/10/18 07:21:03;;;;;;;70.38;7.78;;;;;;;;;;6333418;22;20399;-58
2022/10/18 07:23:34;;;;;;;69.72;8.05;;;;;;;;;;6331253;22;20475;-58
2022/10/18 07:26:26;;;;;;;71.75;8.60;;;;;;;;;;6332662;22;20093;-59
2022/10/18 07:28:54;;;;;;;67.43;8.55;;;;;;;;;;6331972;22;20027;-49
2022/10/18 07:31:29;;;;;;;66.20;7.88;;;;;;;;;;6332059;22;20054;-58
2022/10/18 07:33:56;;;;;;;;;;;;;;;;;;6333196;22;20535;-61
2022/10/18 07:36:24;;;;;;;67.35;7.45;;;;;;;;;;6332598;22;19915;-61
2022/10/18 07:38:58;;;;;;;61.95;6.82;;;;;;;;;;6333410;22;20037;-61
2022/10/18 07:41:25;;;;;;;87.93;9.50;;;;;;;;;;6332709;22;20023;-61
2022/10/18 07:44:00;;;;;;;79.72;8.88;;;;;;;;;;6334171;22;20029;-61
2022/10/18 07:46:28;;;;;;;85.70;10.07;;;;;;;;;;6332832;22;20051;-60
2022/10/18 07:48:57;;;;;;;67.28;7.97;;;;;;;;;;6332677;22;20097;-54
2022/10/18 07:51:31;;;;;;;69.53;8.25;;;;;;;;;;6331571;22;20022;-60
2022/10/18 07:53:59;;;;;;;66.07;7.93;;;;;;;;;;6331600;22;20027;-60
2022/10/18 07:56:33;;;;;;;70.32;8.25;;;;;;;;;;6332523;22;20460;-59
2022/10/18 07:59:00;;;;;;;61.30;8.68;;;;;;;;;;6331866;22;20105;-65
2022/10/18 08:01:27;;;;;;;61.97;8.23;;;;;;;;;;6332330;22;20026;-60
2022/10/18 08:04:01;;;;;;;57.05;7.65;;;;;;;;;;6333584;22;20054;-60
2022/10/18 08:06:34;;;;;;;65.07;6.78;;;;;;;;;;6331935;22;20023;-59
2022/10/18 08:09:08;;;;;;;57.88;7.32;;;;;;;;;;6333250;22;20018;-61
2022/10/18 08:11:35;;;;;;;53.10;6.53;;;;;;;;;;6332971;22;20065;-61
2022/10/18 08:14:02;;;;;;;39.55;6.60;;;;;;;;;;6332440;22;20347;-61
2022/10/18 08:16:36;;;;;;;48.38;6.05;;;;;;;;;;6331404;22;20030;-61
2022/10/18 08:19:03;;;;;;;56.28;7.78;;;;;;;;;;6332617;22;20022;-62
2022/10/18 08:21:30;;;;;;;47.03;6.28;;;;;;;;;;6330904;22;20506;-62
2022/10/18 08:24:04;;;;;;;43.75;6.28;;;;;;;;;;6328458;22;20519;-62
2022/10/18 08:26:37;;;;;;;45.17;6.07;;;;;;;;;;6327642;22;20097;-60
2022/10/18 08:29:12;;;;;;;46.38;6.10;;;;;;;;;;6331767;22;20015;-59
2022/10/18 08:31:58;;;;;;;40.10;6.38;;;;;;;;;;6331568;22;20050;-61
2022/10/18 08:34:32;;;;;;;39.97;5.90;;;;;;;;;;6331925;22;20089;-61
2022/10/18 08:36:59;;;;;;;43.58;5.88;;;;;;;;;;6332626;22;20061;-61
2022/10/18 08:39:26;;;;;;;43.92;6.45;;;;;;;;;;6330675;22;20543;-61
2022/10/18 08:42:10;;;;;;;56.05;6.00;;;;;;;;;;6330097;22;20475;-61
2022/10/18 08:44:44;;;;;;;43.60;6.70;;;;;;;;;;6330743;22;20069;-61
2022/10/18 08:47:22;;;;;;;51.38;6.45;;;;;;;;;;6332793;22;20093;-58
2022/10/18 08:49:49;;;;;;;46.40;5.72;;;;;;;;;;6331904;22;20023;-61
2022/10/18 08:52:44;;;;;;;39.53;6.20;;;;;;;;;;6332629;22;20023;-60
2022/10/18 08:55:23;;;;;;;68.57;8.57;;;;;;;;;;6331389;22;20097;-61
2022/10/18 08:57:58;;;;;;;50.63;6.25;;;;;;;;;;6331379;22;20080;-61
2022/10/18 09:00:28;;;;;;;54.38;6.30;;;;;;;;;;6331900;22;20093;-60
2022/10/18 09:02:55;;;;;;;49.58;6.50;;;;;;;;;;6331104;22;20464;-60
2022/10/18 09:05:49;;;;;;;45.22;5.75;;;;;;;;;;6330708;22;20923;-52
2022/10/18 09:08:35;;;;;;;59.75;6.38;;;;;;;;;;6331510;22;20022;-59
2022/10/18 09:11:17;;;;;;;44.88;6.00;;;;;;;;;;6332352;22;20037;-59
2022/10/18 09:13:47;;;;;;;43.40;5.57;;;;;;;;;;6332436;22;20090;-58
2022/10/18 09:16:34;;;;;;;50.38;6.22;;;;;;;;;;6333039;22;20023;-59
2022/10/18 09:19:19;;;;;;;49.25;6.20;;;;;;;;;;6332279;22;20058;-59
2022/10/18 09:21:54;;;;;;;52.80;6.65;;;;;;;;;;6333140;22;20407;-58
2022/10/18 09:24:21;;;;;;;40.45;6.35;;;;;;;;;;6332172;22;20027;-59
2022/10/18 09:27:04;;;;;;;35.85;5.68;;;;;;;;;;6331614;22;20340;-60
2022/10/18 09:29:46;;;;;;;42.47;5.88;;;;;;;;;;6332463;22;20464;-60
2022/10/18 09:32:26;;;;;;;46.30;5.43;;;;;;;;;;6331240;22;20456;-60
2022/10/18 09:35:10;;;;;;;46.67;5.57;;;;;;;;;;6333089;22;20045;-60
2022/10/18 09:37:44;;;;;;;38.55;4.80;;;;;;;;;;6332467;22;20022;-60
2022/10/18 09:40:17;;;;;;;33.92;5.10;;;;;;;;;;6331855;22;20098;-60
2022/10/18 09:43:02;;;;;;;46.70;5.90;;;;;;;;;;6332625;22;20098;-58
2022/10/18 09:45:32;;;;;;;40.75;5.10;;;;;;;;;;6329951;22;20101;-58
2022/10/18 09:48:07;;;;;;;40.08;4.63;;;;;;;;;;6333154;22;20463;-58
2022/10/18 09:50:45;;;;;;;25.13;4.63;;;;;;;;;;6333313;22;20294;-59
2022/10/18 09:53:19;;;;;;;30.25;4.55;;;;;;;;;;6331005;22;20019;-59
2022/10/18 09:55:52;;;;;;;37.03;5.28;;;;;;;;;;6332288;22;20029;-58
2022/10/18 09:58:27;;;;;;;31.75;5.30;;;;;;;;;;6333009;22;20106;-58
2022/10/18 10:00:56;;;;;;;34.28;5.80;;;;;;;;;;6333631;22;20590;-58
2022/10/18 10:03:30;;;;;;;42.97;5.45;;;;;;;;;;6334774;22;20019;-53
2022/10/18 10:06:02;;;;;;;42.88;5.00;;;;;;;;;;6333853;22;20053;-54
2022/10/18 10:08:36;;;;;;;35.85;5.40;;;;;;;;;;6333778;22;20019;-53
2022/10/18 10:11:51;;;;;;;32.80;5.35;;;;;;;;;;6307144;22;20023;-52
2022/10/18 10:14:42;;;;;;;42.53;4.97;;;;;;;;;;6236766;23;20031;-48
2022/10/18 10:17:21;;;;;;;34.30;4.63;;;;;;;;;;6332881;22;20058;-51
2022/10/18 10:20:27;;;;;;;33.35;4.72;;;;;;;;;;6333587;22;20079;-50
2022/10/18 10:22:54;;;;;;;;;;;;;;;;;;6282080;22;20432;-47
2022/10/18 10:25:37;;;;;;;38.65;5.05;;;;;;;;;;6332815;22;19953;-58
2022/10/18 10:28:13;;;;;;;43.13;5.35;;;;;;;;;;6332866;22;20097;-58
2022/10/18 10:30:47;;;;;;;41.08;5.88;;;;;;;;;;6332821;22;20015;-58
2022/10/18 10:33:34;;;;;;;34.45;5.30;;;;;;;;;;6333156;22;20033;-58
2022/10/18 10:36:16;;;;;;;45.65;5.93;;;;;;;;;;6334311;22;20126;-58
2022/10/18 10:38:43;;;;;;;44.58;5.55;;;;;;;;;;6332969;22;20053;-58
2022/10/18 10:41:21;;;;;;;35.47;4.78;;;;;;;;;;6333897;22;20019;-59
2022/10/18 10:43:48;;;;;;;50.75;5.60;;;;;;;;;;6332243;22;20045;-47
2022/10/18 10:46:22;;;;;;;52.53;6.20;;;;;;;;;;6333892;22;20114;-49
2022/10/18 10:48:52;;;;;;;40.58;5.40;;;;;;;;;;6332135;22;20029;-49
2022/10/18 10:51:46;;;;;;;48.97;6.07;;;;;;;;;;6332004;22;20695;-49
2022/10/18 10:54:29;;;;;;;35.85;4.80;;;;;;;;;;6333287;22;20033;-49
2022/10/18 10:57:04;;;;;;;46.08;5.68;;;;;;;;;;6333713;22;20072;-49
2022/10/18 10:59:38;;;;;;;39.83;4.60;;;;;;;;;;6331791;22;20239;-47
2022/10/18 11:02:19;;;;;;;38.30;5.70;;;;;;;;;;6332626;22;20026;-59
2022/10/18 11:04:50;;;;;;;38.67;5.05;;;;;;;;;;6332835;22;20018;-58
2022/10/18 11:07:34;;;;;;;48.60;6.15;;;;;;;;;;6333713;22;20019;-58
2022/10/18 11:10:05;;;;;;;48.70;6.47;;;;;;;;;;6333895;22;20046;-59
2022/10/18 11:12:42;;;;;;;49.17;5.50;;;;;;;;;;6333776;22;20325;-58
2022/10/18 11:15:10;;;;;;;48.28;5.40;;;;;;;;;;6332887;22;20015;-58
2022/10/18 11:17:37;;;;;;;50.20;5.97;;;;;;;;;;6331741;22;20574;-63
2022/10/18 11:20:17;;;;;;;45.25;5.63;;;;;;;;;;6332597;22;20393;-61
2022/10/18 11:22:49;;;;;;;47.45;5.90;;;;;;;;;;6331898;22;20019;-63
2022/10/18 11:25:41;;;;;;;46.95;5.40;;;;;;;;;;6331486;22;20493;-63
2022/10/18 11:28:23;;;;;;;52.58;5.82;;;;;;;;;;6333127;22;20098;-62
2022/10/18 11:31:03;;;;;;;49.45;6.45;;;;;;;;;;6333421;22;20019;-62
2022/10/18 11:33:53;;;;;;;53.88;5.65;;;;;;;;;;6331155;22;20494;-62
2022/10/18 11:36:35;;;;;;;35.45;4.68;;;;;;;;;;6332003;22;20022;-58
2022/10/18 11:39:07;;;;;;;41.83;5.63;;;;;;;;;;6333112;22;20604;-60
2022/10/18 11:41:48;;;;;;;40.42;4.93;;;;;;;;;;6332553;22;20460;-61
2022/10/18 11:44:22;;;;;;;35.72;4.43;;;;;;;;;;6333084;22;20773;-61
2022/10/18 11:47:03;;;;;;;48.50;5.63;;;;;;;;;;6333829;22;20025;-61
2022/10/18 11:49:30;;;;;;;45.05;6.07;;;;;;;;;;6332116;22;20464;-61
2022/10/18 11:52:07;;;;;;;51.50;6.20;;;;;;;;;;6332514;22;20029;-60
2022/10/18 11:54:47;;;;;;;39.90;5.45;;;;;;;;;;6331334;22;20813;-61
2022/10/18 11:57:25;;;;;;;35.78;4.45;;;;;;;;;;6333120;22;20420;-51
2022/10/18 12:00:10;;;;;;;38.60;5.50;;;;;;;;;;6331835;22;20050;-60
2022/10/18 12:03:03;;;;;;;47.08;6.05;;;;;;;;;;6332349;22;20083;-61
2022/10/18 12:05:31;;;;;;;37.60;4.50;;;;;;;;;;6331331;22;20543;-61
2022/10/18 12:08:07;;;;;;;32.70;4.97;;;;;;;;;;6333162;22;20018;-61
2022/10/18 12:10:35;;;;;;;38.33;6.03;;;;;;;;;;6331978;22;20026;-61
2022/10/18 12:13:44;;;;;;;25.33;4.25;;;;;;;;;;6330205;22;20609;-61
2022/10/18 12:16:11;;;;;;;33.03;5.47;;;;;;;;;;6332787;22;20025;-57
2022/10/18 12:19:11;;;;;;;27.80;3.72;;;;;;;;;;6331782;22;20022;-60
2022/10/18 12:21:38;;;;;;;21.83;3.72;;;;;;;;;;6331943;22;20015;-60
2022/10/18 12:24:15;;;;;;;23.88;3.88;;;;;;;;;;6331464;22;20468;-60
2022/10/18 12:26:51;;;;;;;21.25;3.47;;;;;;;;;;6331465;22;20030;-60
2022/10/18 12:29:25;;;;;;;24.95;3.53;;;;;;;;;;6331084;22;20018;-59
2022/10/18 12:32:01;;;;;;;19.02;3.47;;;;;;;;;;6333072;22;20515;-60
2022/10/18 12:34:42;;;;;;;19.98;3.60;;;;;;;;;;6333374;22;20018;-60
2022/10/18 12:37:22;;;;;;;19.80;3.78;;;;;;;;;;6331152;22;20468;-49
2022/10/18 12:40:12;;;;;;;10.27;2.60;;;;;;;;;;6331798;22;20022;-49
2022/10/18 12:42:48;;;;;;;14.93;3.53;;;;;;;;;;6323682;22;20015;-51
2022/10/18 12:45:21;;;;;;;14.23;3.05;;;;;;;;;;6330879;22;20093;-49
2022/10/18 12:47:58;;;;;;;14.63;3.60;;;;;;;;;;6332322;22;20022;-51
2022/10/18 12:50:30;;;;;;;13.30;3.10;;;;;;;;;;6331486;22;20097;-50
2022/10/18 12:53:11;;;;;;;12.60;2.38;;;;;;;;;;6332202;22;20604;-52
2022/10/18 12:55:42;;;;;;;13.05;2.50;;;;;;;;;;6330709;22;20019;-60
2022/10/18 12:58:20;;;;;;;17.08;2.90;;;;;;;;;;6332824;22;20026;-60
2022/10/18 13:00:47;;;;;;;8.40;2.20;;;;;;;;;;6332828;22;20034;-60
2022/10/18 13:03:29;;;;;;;6.32;1.90;;;;;;;;;;6331192;22;20014;-60
2022/10/18 13:05:58;;;;;;;9.70;2.10;;;;;;;;;;6332650;22;20099;-59
2022/10/18 13:08:40;;;;;;;10.52;2.10;;;;;;;;;;6332079;22;20058;-60
2022/10/18 13:11:08;;;;;;;13.13;2.30;;;;;;;;;;6333548;22;20030;-59
2022/10/18 13:13:42;;;;;;;9.48;1.95;;;;;;;;;;6331218;22;20663;-59
2022/10/18 13:16:12;;;;;;;6.22;2.10;;;;;;;;;;6331939;22;20022;-58
2022/10/18 13:18:49;;;;;;;9.98;2.13;;;;;;;;;;6331046;22;20027;-59
2022/10/18 13:21:31;;;;;;;9.18;2.83;;;;;;;;;;6332372;22;20025;-58
2022/10/18 13:24:15;;;;;;;11.32;2.70;;;;;;;;;;6332156;22;20022;-58
2022/10/18 13:27:06;;;;;;;6.47;2.13;;;;;;;;;;6332198;22;20098;-58
2022/10/18 13:30:07;;;;;;;6.85;2.08;;;;;;;;;;6331446;22;20015;-58
2022/10/18 13:32:38;;;;;;;11.93;2.17;;;;;;;;;;6331084;22;20023;-60
2022/10/18 13:35:31;;;;;;;7.03;1.95;;;;;;;;;;6330577;22;20026;-62
2022/10/18 13:38:16;;;;;;;7.88;2.03;;;;;;;;;;6331856;22;20019;-63
2022/10/18 13:40:43;;;;;;;9.57;1.70;;;;;;;;;;6331704;22;20033;-62
2022/10/18 13:43:35;;;;;;;11.52;2.05;;;;;;;;;;6330007;22;20122;-62
2022/10/18 13:46:03;;;;;;;12.15;2.28;;;;;;;;;;6330916;22;20023;-63
2022/10/18 13:48:37;;;;;;;10.13;2.17;;;;;;;;;;6330546;22;20117;-63
2022/10/18 13:51:16;;;;;;;14.05;2.58;;;;;;;;;;6331630;22;20502;-60
2022/10/18 13:54:08;;;;;;;12.75;1.98;;;;;;;;;;6330557;22;20019;-50
2022/10/18 13:56:59;;;;;;;12.18;1.83;;;;;;;;;;6331176;22;20476;-50
2022/10/18 13:59:39;;;;;;;10.43;2.33;;;;;;;;;;6322405;22;20033;-46
2022/10/18 14:02:20;;;;;;;7.43;2.17;;;;;;;;;;6331884;22;20034;-51
2022/10/18 14:05:26;;;;;;;8.57;1.58;;;;;;;;;;6330781;22;20015;-48
2022/10/18 14:08:03;;;;;;;5.82;1.17;;;;;;;;;;6331054;22;20045;-50
2022/10/18 14:10:48;;;;;;;8.15;1.70;;;;;;;;;;6330995;22;20022;-59
2022/10/18 14:13:43;;;;;;;5.53;1.73;;;;;;;;;;6329446;22;20122;-47
2022/10/18 14:16:22;;;;;;;6.72;1.30;;;;;;;;;;6332113;22;20118;-47
2022/10/18 14:18:58;;;;;;;10.65;1.63;;;;;;;;;;6330505;22;20027;-47
2022/10/18 14:21:31;;;;;;;6.13;1.45;;;;;;;;;;6332089;22;20085;-48
2022/10/18 16:22:27;;;;;;;2.67;1.38;;;;;;;;;;6321277;22;20032;-51
2022/10/18 16:25:10;;;;;;;5.63;1.55;;;;;;;;;;6298361;22;20055;-58
2022/10/18 16:27:44;;;;;;;2.33;1.25;;;;;;;;;;6297755;22;20023;-60
2022/10/18 16:30:13;;;;;;;2.90;1.45;;;;;;;;;;6298487;22;20098;-60
2022/10/18 16:32:40;;;;;;;3.20;1.30;;;;;;;;;;6296138;22;20023;-60
2022/10/18 16:35:14;;;;;;;6.22;1.13;;;;;;;;;;6297294;22;20023;-60
2022/10/18 16:37:42;;;;;;;2.97;0.90;;;;;;;;;;6297946;22;20027;-60
2022/10/18 16:40:23;;;;;;;4.45;1.00;;;;;;;;;;6298099;22;20029;-60
2022/10/18 16:42:51;;;;;;;4.40;1.00;;;;;;;;;;6296308;22;20019;-61
2022/10/18 16:45:25;;;;;;;1.40;0.85;;;;;;;;;;6298880;22;20025;-62
2022/10/18 16:47:52;;;;;;;7.03;1.30;;;;;;;;;;6297187;22;20023;-62
2022/10/18 16:50:21;;;;;;;4.97;1.48;;;;;;;;;;6295844;22;20023;-62
2022/10/18 16:53:00;;;;;;;6.70;2.10;;;;;;;;;;6299757;22;20023;-62
2022/10/18 16:55:27;;;;;;;6.40;1.55;;;;;;;;;;6298994;22;20073;-62
2022/10/18 16:58:01;;;;;;;5.38;1.55;;;;;;;;;;6299025;22;20531;-61
2022/10/18 17:00:28;;;;;;;4.57;1.67;;;;;;;;;;6299614;22;20045;-60
2022/10/18 17:02:55;;;;;;;4.43;2.00;;;;;;;;;;6299943;22;20082;-58
2022/10/18 17:05:30;;;;;;;8.52;2.22;;;;;;;;;;6300157;22;20468;-57
2022/10/18 17:07:57;;;;;;;5.40;2.00;;;;;;;;;;6299677;22;20480;-58
2022/10/18 17:10:31;;;;;;;5.65;1.67;;;;;;;;;;6300340;22;20058;-58
2022/10/18 17:13:04;;;;;;;2.90;1.50;;;;;;;;;;6300401;22;20482;-58
2022/10/18 17:15:41;;;;;;;3.60;1.65;;;;;;;;;;6297414;22;20606;-58